<?xml version="1.0" encoding="UTF-8" standalone="no" ?>
<gpx xmlns="http://www.topografix.com/GPX/1/1" xmlns:xsi="http://www.w3.org/2001/XMLSchema-instance" xsi:schemaLocation="http://www.topografix.com/GPX/1/1 http://www.topografix.com/GPX/1/1/gpx.xsd" version="1.1" creator="VisuGPX - https://www.visugpx.com">
  <metadata>
    <name>parcours n2 </name>
    <desc><![CDATA[parcours n2 THOMAS ET PAPA LE 170711]]></desc>
  </metadata>
  <trk>
    <name><![CDATA[B.iCycle Track from 2011-07-17_10.54.46]]></name>
    <trkseg>
      <trkpt lat="44.8302" lon="0.99771">
        <ele>-6.079239</ele>
        <time>2011-07-17T08:54:47.969Z</time>
      </trkpt>
      <trkpt lat="44.83042" lon="0.99765">
        <ele>-6.079163</ele>
        <time>2011-07-17T08:54:53.958Z</time>
      </trkpt>
      <trkpt lat="44.83062" lon="0.9976">
        <ele>-5.079105</ele>
        <time>2011-07-17T08:54:58.962Z</time>
      </trkpt>
      <trkpt lat="44.83104" lon="0.99751">
        <ele>-5.078953</ele>
        <time>2011-07-17T08:55:10.965Z</time>
      </trkpt>
      <trkpt lat="44.83125" lon="0.99746">
        <ele>-5.078884</ele>
        <time>2011-07-17T08:55:14.962Z</time>
      </trkpt>
      <trkpt lat="44.8318" lon="0.99726">
        <ele>-4.078716</ele>
        <time>2011-07-17T08:55:36.973Z</time>
      </trkpt>
      <trkpt lat="44.832" lon="0.99713">
        <ele>-4.078682</ele>
        <time>2011-07-17T08:55:40.963Z</time>
      </trkpt>
      <trkpt lat="44.83225" lon="0.99694">
        <ele>-4.078644</ele>
        <time>2011-07-17T08:55:45.961Z</time>
      </trkpt>
      <trkpt lat="44.83247" lon="0.99676">
        <ele>-4.078613</ele>
        <time>2011-07-17T08:55:48.961Z</time>
      </trkpt>
      <trkpt lat="44.83264" lon="0.99661">
        <ele>-3.07859</ele>
        <time>2011-07-17T08:55:55.967Z</time>
      </trkpt>
      <trkpt lat="44.83284" lon="0.99643">
        <ele>-3.078571</ele>
        <time>2011-07-17T08:55:59.964Z</time>
      </trkpt>
      <trkpt lat="44.83302" lon="0.99624">
        <ele>-3.07856</ele>
        <time>2011-07-17T08:56:02.956Z</time>
      </trkpt>
      <trkpt lat="44.8332" lon="0.99606">
        <ele>-3.078552</ele>
        <time>2011-07-17T08:56:05.970Z</time>
      </trkpt>
      <trkpt lat="44.83336" lon="0.99587">
        <ele>-3.078548</ele>
        <time>2011-07-17T08:56:09.966Z</time>
      </trkpt>
      <trkpt lat="44.83351" lon="0.99572">
        <ele>-3.078537</ele>
        <time>2011-07-17T08:56:13.960Z</time>
      </trkpt>
      <trkpt lat="44.83369" lon="0.99561">
        <ele>-3.07851</ele>
        <time>2011-07-17T08:56:19.964Z</time>
      </trkpt>
      <trkpt lat="44.83384" lon="0.99579">
        <ele>-4.078369</ele>
        <time>2011-07-17T08:56:25.958Z</time>
      </trkpt>
      <trkpt lat="44.83395" lon="0.99604">
        <ele>-4.078243</ele>
        <time>2011-07-17T08:56:28.961Z</time>
      </trkpt>
      <trkpt lat="44.83406" lon="0.99627">
        <ele>-4.078114</ele>
        <time>2011-07-17T08:56:32.958Z</time>
      </trkpt>
      <trkpt lat="44.83417" lon="0.99652">
        <ele>-4.077972</ele>
        <time>2011-07-17T08:56:36.962Z</time>
      </trkpt>
      <trkpt lat="44.83428" lon="0.99675">
        <ele>-4.077843</ele>
        <time>2011-07-17T08:56:40.962Z</time>
      </trkpt>
      <trkpt lat="44.83439" lon="0.99699">
        <ele>-4.077721</ele>
        <time>2011-07-17T08:56:44.958Z</time>
      </trkpt>
      <trkpt lat="44.83449" lon="0.99723">
        <ele>-3.077591</ele>
        <time>2011-07-17T08:56:48.960Z</time>
      </trkpt>
      <trkpt lat="44.83459" lon="0.99745">
        <ele>-3.077461</ele>
        <time>2011-07-17T08:56:52.967Z</time>
      </trkpt>
      <trkpt lat="44.83469" lon="0.99766">
        <ele>-3.077354</ele>
        <time>2011-07-17T08:56:56.958Z</time>
      </trkpt>
      <trkpt lat="44.83479" lon="0.99788">
        <ele>-3.077232</ele>
        <time>2011-07-17T08:57:00.957Z</time>
      </trkpt>
      <trkpt lat="44.83489" lon="0.99809">
        <ele>-3.077114</ele>
        <time>2011-07-17T08:57:04.985Z</time>
      </trkpt>
      <trkpt lat="44.83501" lon="0.99835">
        <ele>-3.076969</ele>
        <time>2011-07-17T08:57:09.965Z</time>
      </trkpt>
      <trkpt lat="44.83515" lon="0.9986">
        <ele>-3.076817</ele>
        <time>2011-07-17T08:57:14.966Z</time>
      </trkpt>
      <trkpt lat="44.83525" lon="0.99882">
        <ele>-3.076698</ele>
        <time>2011-07-17T08:57:18.959Z</time>
      </trkpt>
      <trkpt lat="44.83537" lon="0.99903">
        <ele>-2.076572</ele>
        <time>2011-07-17T08:57:22.963Z</time>
      </trkpt>
      <trkpt lat="44.83549" lon="0.99925">
        <ele>-2.076447</ele>
        <time>2011-07-17T08:57:26.965Z</time>
      </trkpt>
      <trkpt lat="44.83561" lon="0.99947">
        <ele>-2.076321</ele>
        <time>2011-07-17T08:57:30.965Z</time>
      </trkpt>
      <trkpt lat="44.83573" lon="0.9997">
        <ele>-2.076183</ele>
        <time>2011-07-17T08:57:34.964Z</time>
      </trkpt>
      <trkpt lat="44.83586" lon="0.99993">
        <ele>-2.07605</ele>
        <time>2011-07-17T08:57:38.960Z</time>
      </trkpt>
      <trkpt lat="44.836" lon="1.00016">
        <ele>-2.075909</ele>
        <time>2011-07-17T08:57:42.965Z</time>
      </trkpt>
      <trkpt lat="44.83614" lon="1.00039">
        <ele>-2.075771</ele>
        <time>2011-07-17T08:57:46.965Z</time>
      </trkpt>
      <trkpt lat="44.83626" lon="1.0006">
        <ele>-1.075645</ele>
        <time>2011-07-17T08:57:50.959Z</time>
      </trkpt>
      <trkpt lat="44.83638" lon="1.0008">
        <ele>-1.07552</ele>
        <time>2011-07-17T08:57:54.963Z</time>
      </trkpt>
      <trkpt lat="44.8365" lon="1.00101">
        <ele>-1.075394</ele>
        <time>2011-07-17T08:57:58.961Z</time>
      </trkpt>
      <trkpt lat="44.83662" lon="1.00121">
        <ele>-1.075268</ele>
        <time>2011-07-17T08:58:02.969Z</time>
      </trkpt>
      <trkpt lat="44.83674" lon="1.0014">
        <ele>-0.075153</ele>
        <time>2011-07-17T08:58:06.964Z</time>
      </trkpt>
      <trkpt lat="44.83686" lon="1.0016">
        <ele>-0.075027</ele>
        <time>2011-07-17T08:58:10.970Z</time>
      </trkpt>
      <trkpt lat="44.83699" lon="1.0018">
        <ele>-0.074902</ele>
        <time>2011-07-17T08:58:14.957Z</time>
      </trkpt>
      <trkpt lat="44.83712" lon="1.00201">
        <ele>0.925224</ele>
        <time>2011-07-17T08:58:18.944Z</time>
      </trkpt>
      <trkpt lat="44.83725" lon="1.00224">
        <ele>0.925369</ele>
        <time>2011-07-17T08:58:22.954Z</time>
      </trkpt>
      <trkpt lat="44.83738" lon="1.00243">
        <ele>0.925488</ele>
        <time>2011-07-17T08:58:26.951Z</time>
      </trkpt>
      <trkpt lat="44.83751" lon="1.00262">
        <ele>0.925613</ele>
        <time>2011-07-17T08:58:30.951Z</time>
      </trkpt>
      <trkpt lat="44.83765" lon="1.0028">
        <ele>1.925728</ele>
        <time>2011-07-17T08:58:34.951Z</time>
      </trkpt>
      <trkpt lat="44.83778" lon="1.00298">
        <ele>1.925858</ele>
        <time>2011-07-17T08:58:38.950Z</time>
      </trkpt>
      <trkpt lat="44.83794" lon="1.0032">
        <ele>1.925999</ele>
        <time>2011-07-17T08:58:43.950Z</time>
      </trkpt>
      <trkpt lat="44.83808" lon="1.00342">
        <ele>1.926136</ele>
        <time>2011-07-17T08:58:48.952Z</time>
      </trkpt>
      <trkpt lat="44.83824" lon="1.00363">
        <ele>2.926281</ele>
        <time>2011-07-17T08:58:53.943Z</time>
      </trkpt>
      <trkpt lat="44.83838" lon="1.0038">
        <ele>2.926399</ele>
        <time>2011-07-17T08:58:57.945Z</time>
      </trkpt>
      <trkpt lat="44.83853" lon="1.00397">
        <ele>2.926525</ele>
        <time>2011-07-17T08:59:01.949Z</time>
      </trkpt>
      <trkpt lat="44.8387" lon="1.00414">
        <ele>2.926655</ele>
        <time>2011-07-17T08:59:07.948Z</time>
      </trkpt>
      <trkpt lat="44.83885" lon="1.00428">
        <ele>2.926773</ele>
        <time>2011-07-17T08:59:11.951Z</time>
      </trkpt>
      <trkpt lat="44.83901" lon="1.00443">
        <ele>3.926888</ele>
        <time>2011-07-17T08:59:15.949Z</time>
      </trkpt>
      <trkpt lat="44.8392" lon="1.00459">
        <ele>3.927032</ele>
        <time>2011-07-17T08:59:20.951Z</time>
      </trkpt>
      <trkpt lat="44.83936" lon="1.00477">
        <ele>3.927158</ele>
        <time>2011-07-17T08:59:25.950Z</time>
      </trkpt>
      <trkpt lat="44.83952" lon="1.00494">
        <ele>4.927292</ele>
        <time>2011-07-17T08:59:30.950Z</time>
      </trkpt>
      <trkpt lat="44.83971" lon="1.00516">
        <ele>4.927444</ele>
        <time>2011-07-17T08:59:37.954Z</time>
      </trkpt>
      <trkpt lat="44.83985" lon="1.00534">
        <ele>4.927574</ele>
        <time>2011-07-17T08:59:41.959Z</time>
      </trkpt>
      <trkpt lat="44.84036" lon="1.00599">
        <ele>4.928017</ele>
        <time>2011-07-17T09:00:14.948Z</time>
      </trkpt>
      <trkpt lat="44.84076" lon="1.00644">
        <ele>4.928352</ele>
        <time>2011-07-17T09:00:33.917Z</time>
      </trkpt>
      <trkpt lat="44.84357" lon="1.00494">
        <ele>20.929008</ele>
        <time>2011-07-17T09:02:42.919Z</time>
      </trkpt>
      <trkpt lat="44.84402" lon="1.00477">
        <ele>14.92915</ele>
        <time>2011-07-17T09:03:03.917Z</time>
      </trkpt>
      <trkpt lat="44.8436" lon="1.00449">
        <ele>17.928867</ele>
        <time>2011-07-17T09:04:29.912Z</time>
      </trkpt>
      <trkpt lat="44.84037" lon="1.00465">
        <ele>42.927551</ele>
        <time>2011-07-17T09:07:20.925Z</time>
      </trkpt>
      <trkpt lat="44.84027" lon="1.00401">
        <ele>45.927273</ele>
        <time>2011-07-17T09:07:25.916Z</time>
      </trkpt>
      <trkpt lat="44.84042" lon="1.00369">
        <ele>39.927223</ele>
        <time>2011-07-17T09:07:41.913Z</time>
      </trkpt>
      <trkpt lat="44.84066" lon="1.00391">
        <ele>38.927414</ele>
        <time>2011-07-17T09:07:58.915Z</time>
      </trkpt>
      <trkpt lat="44.8409" lon="1.0041">
        <ele>38.927582</ele>
        <time>2011-07-17T09:08:13.913Z</time>
      </trkpt>
      <trkpt lat="44.84116" lon="1.00402">
        <ele>39.927666</ele>
        <time>2011-07-17T09:08:34.913Z</time>
      </trkpt>
      <trkpt lat="44.84131" lon="1.00387">
        <ele>40.927658</ele>
        <time>2011-07-17T09:08:53.915Z</time>
      </trkpt>
      <trkpt lat="44.8414" lon="1.00358">
        <ele>41.927605</ele>
        <time>2011-07-17T09:09:15.930Z</time>
      </trkpt>
      <trkpt lat="44.84139" lon="1.00312">
        <ele>42.927437</ele>
        <time>2011-07-17T09:09:44.913Z</time>
      </trkpt>
      <trkpt lat="44.84136" lon="1.00285">
        <ele>43.92733</ele>
        <time>2011-07-17T09:09:57.911Z</time>
      </trkpt>
      <trkpt lat="44.84132" lon="1.0026">
        <ele>45.927231</ele>
        <time>2011-07-17T09:10:08.911Z</time>
      </trkpt>
      <trkpt lat="44.84129" lon="1.00245">
        <ele>47.927155</ele>
        <time>2011-07-17T09:10:18.913Z</time>
      </trkpt>
      <trkpt lat="44.84127" lon="1.00223">
        <ele>48.927063</ele>
        <time>2011-07-17T09:10:30.910Z</time>
      </trkpt>
      <trkpt lat="44.84124" lon="1.00179">
        <ele>54.926899</ele>
        <time>2011-07-17T09:10:56.914Z</time>
      </trkpt>
      <trkpt lat="44.84114" lon="1.00123">
        <ele>61.926659</ele>
        <time>2011-07-17T09:11:39.911Z</time>
      </trkpt>
      <trkpt lat="44.84112" lon="1.00117">
        <ele>62.926632</ele>
        <time>2011-07-17T09:11:42.916Z</time>
      </trkpt>
      <trkpt lat="44.84109" lon="1.00108">
        <ele>63.926582</ele>
        <time>2011-07-17T09:11:47.913Z</time>
      </trkpt>
      <trkpt lat="44.84106" lon="1.00102">
        <ele>64.926552</ele>
        <time>2011-07-17T09:11:50.912Z</time>
      </trkpt>
      <trkpt lat="44.84099" lon="1.00085">
        <ele>65.926468</ele>
        <time>2011-07-17T09:11:58.913Z</time>
      </trkpt>
      <trkpt lat="44.84095" lon="1.00071">
        <ele>66.926392</ele>
        <time>2011-07-17T09:12:04.910Z</time>
      </trkpt>
      <trkpt lat="44.84093" lon="1.00058">
        <ele>68.926331</ele>
        <time>2011-07-17T09:12:10.912Z</time>
      </trkpt>
      <trkpt lat="44.84097" lon="1.0004">
        <ele>70.926292</ele>
        <time>2011-07-17T09:12:25.917Z</time>
      </trkpt>
      <trkpt lat="44.84104" lon="1.00016">
        <ele>71.926231</ele>
        <time>2011-07-17T09:12:44.910Z</time>
      </trkpt>
      <trkpt lat="44.84114" lon="0.99977">
        <ele>72.92614</ele>
        <time>2011-07-17T09:13:01.911Z</time>
      </trkpt>
      <trkpt lat="44.84121" lon="0.9994">
        <ele>73.926041</ele>
        <time>2011-07-17T09:13:22.912Z</time>
      </trkpt>
      <trkpt lat="44.84131" lon="0.99904">
        <ele>72.925941</ele>
        <time>2011-07-17T09:13:34.910Z</time>
      </trkpt>
      <trkpt lat="44.84142" lon="0.99868">
        <ele>73.925873</ele>
        <time>2011-07-17T09:13:47.915Z</time>
      </trkpt>
      <trkpt lat="44.84149" lon="0.9983">
        <ele>75.925766</ele>
        <time>2011-07-17T09:13:58.919Z</time>
      </trkpt>
      <trkpt lat="44.84154" lon="0.99789">
        <ele>76.925636</ele>
        <time>2011-07-17T09:14:16.916Z</time>
      </trkpt>
      <trkpt lat="44.84445" lon="0.99622">
        <ele>91.926285</ele>
        <time>2011-07-17T09:16:51.915Z</time>
      </trkpt>
      <trkpt lat="44.84473" lon="0.99612">
        <ele>92.926369</ele>
        <time>2011-07-17T09:17:05.909Z</time>
      </trkpt>
      <trkpt lat="44.84503" lon="0.99602">
        <ele>93.926453</ele>
        <time>2011-07-17T09:17:19.910Z</time>
      </trkpt>
      <trkpt lat="44.8453" lon="0.9959">
        <ele>94.926514</ele>
        <time>2011-07-17T09:17:32.909Z</time>
      </trkpt>
      <trkpt lat="44.84558" lon="0.99579">
        <ele>95.926613</ele>
        <time>2011-07-17T09:17:46.913Z</time>
      </trkpt>
      <trkpt lat="44.84584" lon="0.99572">
        <ele>96.926704</ele>
        <time>2011-07-17T09:17:53.946Z</time>
      </trkpt>
      <trkpt lat="44.84603" lon="0.99569">
        <ele>97.926758</ele>
        <time>2011-07-17T09:17:59.941Z</time>
      </trkpt>
      <trkpt lat="44.84624" lon="0.99566">
        <ele>98.926849</ele>
        <time>2011-07-17T09:18:06.942Z</time>
      </trkpt>
      <trkpt lat="44.84642" lon="0.99563">
        <ele>99.92691</ele>
        <time>2011-07-17T09:18:13.947Z</time>
      </trkpt>
      <trkpt lat="44.84661" lon="0.99561">
        <ele>100.926971</ele>
        <time>2011-07-17T09:18:20.940Z</time>
      </trkpt>
      <trkpt lat="44.84698" lon="0.99556">
        <ele>102.927124</ele>
        <time>2011-07-17T09:18:39.941Z</time>
      </trkpt>
      <trkpt lat="44.84718" lon="0.99556">
        <ele>102.927216</ele>
        <time>2011-07-17T09:18:46.940Z</time>
      </trkpt>
      <trkpt lat="44.84738" lon="0.99557">
        <ele>103.927307</ele>
        <time>2011-07-17T09:18:52.945Z</time>
      </trkpt>
      <trkpt lat="44.84758" lon="0.9956">
        <ele>103.927399</ele>
        <time>2011-07-17T09:18:58.941Z</time>
      </trkpt>
      <trkpt lat="44.84775" lon="0.99565">
        <ele>104.92749</ele>
        <time>2011-07-17T09:19:03.941Z</time>
      </trkpt>
      <trkpt lat="44.84794" lon="0.99574">
        <ele>104.927597</ele>
        <time>2011-07-17T09:19:10.940Z</time>
      </trkpt>
      <trkpt lat="44.84811" lon="0.99582">
        <ele>104.927696</ele>
        <time>2011-07-17T09:19:16.943Z</time>
      </trkpt>
      <trkpt lat="44.84829" lon="0.9959">
        <ele>104.927803</ele>
        <time>2011-07-17T09:19:22.940Z</time>
      </trkpt>
      <trkpt lat="44.84847" lon="0.99598">
        <ele>104.927902</ele>
        <time>2011-07-17T09:19:28.944Z</time>
      </trkpt>
      <trkpt lat="44.84864" lon="0.99608">
        <ele>105.928009</ele>
        <time>2011-07-17T09:19:34.942Z</time>
      </trkpt>
      <trkpt lat="44.84881" lon="0.99621">
        <ele>106.928131</ele>
        <time>2011-07-17T09:19:40.942Z</time>
      </trkpt>
      <trkpt lat="44.84899" lon="0.99636">
        <ele>107.928261</ele>
        <time>2011-07-17T09:19:47.942Z</time>
      </trkpt>
      <trkpt lat="44.84914" lon="0.99652">
        <ele>107.928391</ele>
        <time>2011-07-17T09:19:53.935Z</time>
      </trkpt>
      <trkpt lat="44.8493" lon="0.99669">
        <ele>107.928513</ele>
        <time>2011-07-17T09:19:59.952Z</time>
      </trkpt>
      <trkpt lat="44.84946" lon="0.99684">
        <ele>108.928635</ele>
        <time>2011-07-17T09:20:05.942Z</time>
      </trkpt>
      <trkpt lat="44.84963" lon="0.99695">
        <ele>108.928757</ele>
        <time>2011-07-17T09:20:10.943Z</time>
      </trkpt>
      <trkpt lat="44.84984" lon="0.99701">
        <ele>109.928848</ele>
        <time>2011-07-17T09:20:16.948Z</time>
      </trkpt>
      <trkpt lat="44.85006" lon="0.99695">
        <ele>109.928925</ele>
        <time>2011-07-17T09:20:21.941Z</time>
      </trkpt>
      <trkpt lat="44.85025" lon="0.99687">
        <ele>109.928986</ele>
        <time>2011-07-17T09:20:25.947Z</time>
      </trkpt>
      <trkpt lat="44.85046" lon="0.99681">
        <ele>110.929062</ele>
        <time>2011-07-17T09:20:30.946Z</time>
      </trkpt>
      <trkpt lat="44.85068" lon="0.99678">
        <ele>109.929123</ele>
        <time>2011-07-17T09:20:35.948Z</time>
      </trkpt>
      <trkpt lat="44.85089" lon="0.99678">
        <ele>109.929222</ele>
        <time>2011-07-17T09:20:40.952Z</time>
      </trkpt>
      <trkpt lat="44.8511" lon="0.9968">
        <ele>110.929314</ele>
        <time>2011-07-17T09:20:45.953Z</time>
      </trkpt>
      <trkpt lat="44.8513" lon="0.99684">
        <ele>110.92942</ele>
        <time>2011-07-17T09:20:50.938Z</time>
      </trkpt>
      <trkpt lat="44.85151" lon="0.99687">
        <ele>110.92952</ele>
        <time>2011-07-17T09:20:55.947Z</time>
      </trkpt>
      <trkpt lat="44.8517" lon="0.99692">
        <ele>111.929611</ele>
        <time>2011-07-17T09:21:00.942Z</time>
      </trkpt>
      <trkpt lat="44.85189" lon="0.99697">
        <ele>111.92971</ele>
        <time>2011-07-17T09:21:05.945Z</time>
      </trkpt>
      <trkpt lat="44.85207" lon="0.99701">
        <ele>112.929802</ele>
        <time>2011-07-17T09:21:10.960Z</time>
      </trkpt>
      <trkpt lat="44.85228" lon="0.99705">
        <ele>112.929901</ele>
        <time>2011-07-17T09:21:16.949Z</time>
      </trkpt>
      <trkpt lat="44.85249" lon="0.99707">
        <ele>113.93</ele>
        <time>2011-07-17T09:21:22.950Z</time>
      </trkpt>
      <trkpt lat="44.8527" lon="0.99711">
        <ele>113.930099</ele>
        <time>2011-07-17T09:21:28.947Z</time>
      </trkpt>
      <trkpt lat="44.8529" lon="0.99714">
        <ele>114.930191</ele>
        <time>2011-07-17T09:21:34.950Z</time>
      </trkpt>
      <trkpt lat="44.85309" lon="0.99714">
        <ele>114.930283</ele>
        <time>2011-07-17T09:21:40.941Z</time>
      </trkpt>
      <trkpt lat="44.85328" lon="0.99714">
        <ele>115.930359</ele>
        <time>2011-07-17T09:21:46.951Z</time>
      </trkpt>
      <trkpt lat="44.85348" lon="0.99712">
        <ele>116.930443</ele>
        <time>2011-07-17T09:21:53.944Z</time>
      </trkpt>
      <trkpt lat="44.85369" lon="0.99709">
        <ele>117.930511</ele>
        <time>2011-07-17T09:22:00.946Z</time>
      </trkpt>
      <trkpt lat="44.85395" lon="0.99706">
        <ele>118.930618</ele>
        <time>2011-07-17T09:22:12.941Z</time>
      </trkpt>
      <trkpt lat="44.85438" lon="0.99707">
        <ele>120.930809</ele>
        <time>2011-07-17T09:22:37.944Z</time>
      </trkpt>
      <trkpt lat="44.8547" lon="0.99709">
        <ele>121.930939</ele>
        <time>2011-07-17T09:22:47.940Z</time>
      </trkpt>
      <trkpt lat="44.85492" lon="0.99711">
        <ele>121.931046</ele>
        <time>2011-07-17T09:22:51.948Z</time>
      </trkpt>
      <trkpt lat="44.85511" lon="0.99711">
        <ele>121.931137</ele>
        <time>2011-07-17T09:22:54.939Z</time>
      </trkpt>
      <trkpt lat="44.85538" lon="0.99711">
        <ele>121.931244</ele>
        <time>2011-07-17T09:22:57.943Z</time>
      </trkpt>
      <trkpt lat="44.85564" lon="0.99707">
        <ele>122.931328</ele>
        <time>2011-07-17T09:23:00.945Z</time>
      </trkpt>
      <trkpt lat="44.85585" lon="0.99703">
        <ele>122.931404</ele>
        <time>2011-07-17T09:23:03.956Z</time>
      </trkpt>
      <trkpt lat="44.85606" lon="0.99699">
        <ele>122.93148</ele>
        <time>2011-07-17T09:23:07.948Z</time>
      </trkpt>
      <trkpt lat="44.8563" lon="0.99693">
        <ele>122.931572</ele>
        <time>2011-07-17T09:23:11.940Z</time>
      </trkpt>
      <trkpt lat="44.85651" lon="0.99685">
        <ele>123.931625</ele>
        <time>2011-07-17T09:23:15.941Z</time>
      </trkpt>
      <trkpt lat="44.8567" lon="0.99672">
        <ele>123.931671</ele>
        <time>2011-07-17T09:23:20.937Z</time>
      </trkpt>
      <trkpt lat="44.85698" lon="0.99636">
        <ele>125.931656</ele>
        <time>2011-07-17T09:23:30.937Z</time>
      </trkpt>
      <trkpt lat="44.85711" lon="0.99614">
        <ele>125.931625</ele>
        <time>2011-07-17T09:23:35.938Z</time>
      </trkpt>
      <trkpt lat="44.85724" lon="0.99592">
        <ele>126.93161</ele>
        <time>2011-07-17T09:23:41.939Z</time>
      </trkpt>
      <trkpt lat="44.85738" lon="0.9957">
        <ele>127.931587</ele>
        <time>2011-07-17T09:23:50.937Z</time>
      </trkpt>
      <trkpt lat="44.85878" lon="0.99581">
        <ele>136.93222</ele>
        <time>2011-07-17T09:25:06.902Z</time>
      </trkpt>
      <trkpt lat="44.85902" lon="0.99609">
        <ele>139.932419</ele>
        <time>2011-07-17T09:25:22.905Z</time>
      </trkpt>
      <trkpt lat="44.85935" lon="0.99624">
        <ele>141.932617</ele>
        <time>2011-07-17T09:25:31.939Z</time>
      </trkpt>
      <trkpt lat="44.8596" lon="0.99634">
        <ele>141.93277</ele>
        <time>2011-07-17T09:25:34.939Z</time>
      </trkpt>
      <trkpt lat="44.85981" lon="0.99643">
        <ele>141.932877</ele>
        <time>2011-07-17T09:25:36.934Z</time>
      </trkpt>
      <trkpt lat="44.86003" lon="0.99652">
        <ele>142.933014</ele>
        <time>2011-07-17T09:25:38.937Z</time>
      </trkpt>
      <trkpt lat="44.86024" lon="0.99662">
        <ele>143.933136</ele>
        <time>2011-07-17T09:25:41.935Z</time>
      </trkpt>
      <trkpt lat="44.86044" lon="0.99671">
        <ele>143.933258</ele>
        <time>2011-07-17T09:25:43.940Z</time>
      </trkpt>
      <trkpt lat="44.86223" lon="0.99669">
        <ele>144.93399</ele>
        <time>2011-07-17T09:26:07.940Z</time>
      </trkpt>
      <trkpt lat="44.86245" lon="0.99661">
        <ele>144.934067</ele>
        <time>2011-07-17T09:26:10.934Z</time>
      </trkpt>
      <trkpt lat="44.86267" lon="0.99648">
        <ele>145.934113</ele>
        <time>2011-07-17T09:26:13.941Z</time>
      </trkpt>
      <trkpt lat="44.86287" lon="0.99639">
        <ele>145.934174</ele>
        <time>2011-07-17T09:26:16.941Z</time>
      </trkpt>
      <trkpt lat="44.86307" lon="0.9963">
        <ele>145.934219</ele>
        <time>2011-07-17T09:26:25.940Z</time>
      </trkpt>
      <trkpt lat="44.86352" lon="0.99645">
        <ele>145.934464</ele>
        <time>2011-07-17T09:26:37.937Z</time>
      </trkpt>
      <trkpt lat="44.86363" lon="0.99683">
        <ele>146.934647</ele>
        <time>2011-07-17T09:26:41.937Z</time>
      </trkpt>
      <trkpt lat="44.86369" lon="0.99711">
        <ele>146.934753</ele>
        <time>2011-07-17T09:26:44.938Z</time>
      </trkpt>
      <trkpt lat="44.86374" lon="0.99745">
        <ele>146.934921</ele>
        <time>2011-07-17T09:26:47.933Z</time>
      </trkpt>
      <trkpt lat="44.86378" lon="0.99773">
        <ele>146.935043</ele>
        <time>2011-07-17T09:26:50.937Z</time>
      </trkpt>
      <trkpt lat="44.86054" lon="1.01348">
        <ele>109.939278</ele>
        <time>2011-07-17T09:35:15.913Z</time>
      </trkpt>
      <trkpt lat="44.86005" lon="1.01376">
        <ele>109.939163</ele>
        <time>2011-07-17T09:35:25.953Z</time>
      </trkpt>
      <trkpt lat="44.85905" lon="1.01418">
        <ele>109.938904</ele>
        <time>2011-07-17T09:35:56.943Z</time>
      </trkpt>
      <trkpt lat="44.85859" lon="1.01435">
        <ele>109.938766</ele>
        <time>2011-07-17T09:36:11.912Z</time>
      </trkpt>
      <trkpt lat="44.85813" lon="1.01446">
        <ele>106.938614</ele>
        <time>2011-07-17T09:36:21.913Z</time>
      </trkpt>
      <trkpt lat="44.85765" lon="1.01455">
        <ele>102.938431</ele>
        <time>2011-07-17T09:36:30.920Z</time>
      </trkpt>
      <trkpt lat="44.85717" lon="1.01465">
        <ele>97.938263</ele>
        <time>2011-07-17T09:36:42.913Z</time>
      </trkpt>
      <trkpt lat="44.85687" lon="1.01467">
        <ele>94.938141</ele>
        <time>2011-07-17T09:36:47.915Z</time>
      </trkpt>
      <trkpt lat="44.85657" lon="1.01469">
        <ele>92.938026</ele>
        <time>2011-07-17T09:36:51.914Z</time>
      </trkpt>
      <trkpt lat="44.8563" lon="1.01471">
        <ele>90.937912</ele>
        <time>2011-07-17T09:36:57.523Z</time>
      </trkpt>
      <trkpt lat="44.85602" lon="1.01474">
        <ele>88.937805</ele>
        <time>2011-07-17T09:37:02.911Z</time>
      </trkpt>
      <trkpt lat="44.85552" lon="1.01483">
        <ele>84.937622</ele>
        <time>2011-07-17T09:37:16.911Z</time>
      </trkpt>
      <trkpt lat="44.85465" lon="1.01525">
        <ele>77.937401</ele>
        <time>2011-07-17T09:37:36.915Z</time>
      </trkpt>
      <trkpt lat="44.8542" lon="1.01567">
        <ele>69.937363</ele>
        <time>2011-07-17T09:37:53.914Z</time>
      </trkpt>
      <trkpt lat="44.84811" lon="1.01882">
        <ele>49.93589</ele>
        <time>2011-07-17T09:40:46.954Z</time>
      </trkpt>
      <trkpt lat="44.84794" lon="1.01868">
        <ele>50.935764</ele>
        <time>2011-07-17T09:40:50.959Z</time>
      </trkpt>
      <trkpt lat="44.84607" lon="1.01634">
        <ele>49.934135</ele>
        <time>2011-07-17T09:41:44.982Z</time>
      </trkpt>
      <trkpt lat="44.84596" lon="1.01615">
        <ele>49.93401</ele>
        <time>2011-07-17T09:41:48.951Z</time>
      </trkpt>
      <trkpt lat="44.84581" lon="1.01591">
        <ele>49.933876</ele>
        <time>2011-07-17T09:41:53.953Z</time>
      </trkpt>
      <trkpt lat="44.84566" lon="1.01567">
        <ele>49.933723</ele>
        <time>2011-07-17T09:41:58.955Z</time>
      </trkpt>
      <trkpt lat="44.84551" lon="1.01544">
        <ele>48.933578</ele>
        <time>2011-07-17T09:42:03.962Z</time>
      </trkpt>
      <trkpt lat="44.84537" lon="1.01519">
        <ele>48.933434</ele>
        <time>2011-07-17T09:42:08.972Z</time>
      </trkpt>
      <trkpt lat="44.84526" lon="1.01494">
        <ele>48.933281</ele>
        <time>2011-07-17T09:42:13.957Z</time>
      </trkpt>
      <trkpt lat="44.84515" lon="1.01468">
        <ele>47.933151</ele>
        <time>2011-07-17T09:42:18.969Z</time>
      </trkpt>
      <trkpt lat="44.84503" lon="1.01442">
        <ele>47.933002</ele>
        <time>2011-07-17T09:42:23.958Z</time>
      </trkpt>
      <trkpt lat="44.84362" lon="1.01581">
        <ele>42.932899</ele>
        <time>2011-07-17T09:43:18.955Z</time>
      </trkpt>
      <trkpt lat="44.84353" lon="1.01609">
        <ele>42.932961</ele>
        <time>2011-07-17T09:43:23.959Z</time>
      </trkpt>
      <trkpt lat="44.84343" lon="1.01635">
        <ele>42.93301</ele>
        <time>2011-07-17T09:43:28.951Z</time>
      </trkpt>
      <trkpt lat="44.84264" lon="1.01725">
        <ele>41.932991</ele>
        <time>2011-07-17T09:43:51.947Z</time>
      </trkpt>
      <trkpt lat="44.84244" lon="1.01728">
        <ele>41.932919</ele>
        <time>2011-07-17T09:43:54.943Z</time>
      </trkpt>
      <trkpt lat="44.84226" lon="1.01729">
        <ele>41.932838</ele>
        <time>2011-07-17T09:43:57.951Z</time>
      </trkpt>
      <trkpt lat="44.84205" lon="1.01725">
        <ele>41.932739</ele>
        <time>2011-07-17T09:44:01.952Z</time>
      </trkpt>
      <trkpt lat="44.84185" lon="1.01721">
        <ele>40.932644</ele>
        <time>2011-07-17T09:44:05.945Z</time>
      </trkpt>
      <trkpt lat="44.84165" lon="1.01719">
        <ele>40.932545</ele>
        <time>2011-07-17T09:44:10.943Z</time>
      </trkpt>
      <trkpt lat="44.83607" lon="1.01707">
        <ele>37.93013</ele>
        <time>2011-07-17T09:46:37.068Z</time>
      </trkpt>
      <trkpt lat="44.83588" lon="1.01704">
        <ele>37.930031</ele>
        <time>2011-07-17T09:46:45.069Z</time>
      </trkpt>
      <trkpt lat="44.83562" lon="1.01699">
        <ele>37.929909</ele>
        <time>2011-07-17T09:47:10.069Z</time>
      </trkpt>
      <trkpt lat="44.83533" lon="1.01698">
        <ele>36.929779</ele>
        <time>2011-07-17T09:47:22.023Z</time>
      </trkpt>
      <trkpt lat="44.83506" lon="1.01695">
        <ele>35.929657</ele>
        <time>2011-07-17T09:47:34.028Z</time>
      </trkpt>
      <trkpt lat="44.83475" lon="1.01682">
        <ele>33.929478</ele>
        <time>2011-07-17T09:47:43.027Z</time>
      </trkpt>
      <trkpt lat="44.83442" lon="1.01663">
        <ele>32.929272</ele>
        <time>2011-07-17T09:47:50.033Z</time>
      </trkpt>
      <trkpt lat="44.8341" lon="1.01643">
        <ele>31.929058</ele>
        <time>2011-07-17T09:47:56.027Z</time>
      </trkpt>
      <trkpt lat="44.83385" lon="1.01627">
        <ele>30.928894</ele>
        <time>2011-07-17T09:48:01.046Z</time>
      </trkpt>
      <trkpt lat="44.83366" lon="1.01613">
        <ele>30.928764</ele>
        <time>2011-07-17T09:48:04.069Z</time>
      </trkpt>
      <trkpt lat="44.83336" lon="1.01588">
        <ele>29.928555</ele>
        <time>2011-07-17T09:48:12.058Z</time>
      </trkpt>
      <trkpt lat="44.83313" lon="1.01561">
        <ele>28.928352</ele>
        <time>2011-07-17T09:48:24.070Z</time>
      </trkpt>
      <trkpt lat="44.83289" lon="1.01536">
        <ele>27.928162</ele>
        <time>2011-07-17T09:48:34.037Z</time>
      </trkpt>
      <trkpt lat="44.83262" lon="1.01511">
        <ele>26.927959</ele>
        <time>2011-07-17T09:48:43.027Z</time>
      </trkpt>
      <trkpt lat="44.83235" lon="1.01488">
        <ele>26.927773</ele>
        <time>2011-07-17T09:48:50.027Z</time>
      </trkpt>
      <trkpt lat="44.8321" lon="1.01468">
        <ele>25.927582</ele>
        <time>2011-07-17T09:48:57.027Z</time>
      </trkpt>
      <trkpt lat="44.83191" lon="1.01438">
        <ele>24.927406</ele>
        <time>2011-07-17T09:49:05.069Z</time>
      </trkpt>
      <trkpt lat="44.83194" lon="1.0141">
        <ele>24.927315</ele>
        <time>2011-07-17T09:49:10.064Z</time>
      </trkpt>
      <trkpt lat="44.832" lon="1.01383">
        <ele>24.92725</ele>
        <time>2011-07-17T09:49:14.063Z</time>
      </trkpt>
      <trkpt lat="44.83211" lon="1.0136">
        <ele>24.9272</ele>
        <time>2011-07-17T09:49:19.070Z</time>
      </trkpt>
      <trkpt lat="44.83224" lon="1.01335">
        <ele>24.927185</ele>
        <time>2011-07-17T09:49:24.070Z</time>
      </trkpt>
      <trkpt lat="44.83235" lon="1.01313">
        <ele>23.927147</ele>
        <time>2011-07-17T09:49:28.064Z</time>
      </trkpt>
      <trkpt lat="44.83249" lon="1.01289">
        <ele>24.927124</ele>
        <time>2011-07-17T09:49:33.065Z</time>
      </trkpt>
      <trkpt lat="44.83261" lon="1.01268">
        <ele>23.927097</ele>
        <time>2011-07-17T09:49:38.077Z</time>
      </trkpt>
      <trkpt lat="44.83275" lon="1.01244">
        <ele>23.927067</ele>
        <time>2011-07-17T09:49:43.069Z</time>
      </trkpt>
      <trkpt lat="44.83288" lon="1.01222">
        <ele>23.927052</ele>
        <time>2011-07-17T09:49:47.059Z</time>
      </trkpt>
      <trkpt lat="44.83301" lon="1.01201">
        <ele>23.927025</ele>
        <time>2011-07-17T09:49:51.068Z</time>
      </trkpt>
      <trkpt lat="44.83313" lon="1.0118">
        <ele>23.926994</ele>
        <time>2011-07-17T09:49:55.064Z</time>
      </trkpt>
      <trkpt lat="44.83324" lon="1.01159">
        <ele>23.926971</ele>
        <time>2011-07-17T09:49:59.065Z</time>
      </trkpt>
      <trkpt lat="44.83336" lon="1.01138">
        <ele>23.926956</ele>
        <time>2011-07-17T09:50:03.070Z</time>
      </trkpt>
      <trkpt lat="44.83348" lon="1.01118">
        <ele>23.926941</ele>
        <time>2011-07-17T09:50:07.078Z</time>
      </trkpt>
      <trkpt lat="44.83356" lon="1.01091">
        <ele>23.926872</ele>
        <time>2011-07-17T09:50:12.068Z</time>
      </trkpt>
      <trkpt lat="44.83356" lon="1.01065">
        <ele>23.926773</ele>
        <time>2011-07-17T09:50:16.067Z</time>
      </trkpt>
      <trkpt lat="44.83365" lon="1.01041">
        <ele>23.926735</ele>
        <time>2011-07-17T09:50:20.081Z</time>
      </trkpt>
      <trkpt lat="44.83375" lon="1.01017">
        <ele>23.926689</ele>
        <time>2011-07-17T09:50:24.086Z</time>
      </trkpt>
      <trkpt lat="44.83387" lon="1.00994">
        <ele>23.926659</ele>
        <time>2011-07-17T09:50:28.065Z</time>
      </trkpt>
      <trkpt lat="44.834" lon="1.00974">
        <ele>22.926647</ele>
        <time>2011-07-17T09:50:32.068Z</time>
      </trkpt>
      <trkpt lat="44.83414" lon="1.00954">
        <ele>23.926643</ele>
        <time>2011-07-17T09:50:36.068Z</time>
      </trkpt>
      <trkpt lat="44.83429" lon="1.00937">
        <ele>23.926643</ele>
        <time>2011-07-17T09:50:40.073Z</time>
      </trkpt>
      <trkpt lat="44.83444" lon="1.00919">
        <ele>23.926636</ele>
        <time>2011-07-17T09:50:44.063Z</time>
      </trkpt>
      <trkpt lat="44.83459" lon="1.00901">
        <ele>23.926643</ele>
        <time>2011-07-17T09:50:48.066Z</time>
      </trkpt>
      <trkpt lat="44.83474" lon="1.00884">
        <ele>23.926643</ele>
        <time>2011-07-17T09:50:52.065Z</time>
      </trkpt>
      <trkpt lat="44.83489" lon="1.00867">
        <ele>23.926643</ele>
        <time>2011-07-17T09:50:56.065Z</time>
      </trkpt>
      <trkpt lat="44.83504" lon="1.00849">
        <ele>23.926643</ele>
        <time>2011-07-17T09:51:00.055Z</time>
      </trkpt>
      <trkpt lat="44.83519" lon="1.00832">
        <ele>22.926651</ele>
        <time>2011-07-17T09:51:04.066Z</time>
      </trkpt>
      <trkpt lat="44.83537" lon="1.00816">
        <ele>22.926674</ele>
        <time>2011-07-17T09:51:08.059Z</time>
      </trkpt>
      <trkpt lat="44.83555" lon="1.00803">
        <ele>23.926701</ele>
        <time>2011-07-17T09:51:12.062Z</time>
      </trkpt>
      <trkpt lat="44.83574" lon="1.00795">
        <ele>22.926758</ele>
        <time>2011-07-17T09:51:16.064Z</time>
      </trkpt>
      <trkpt lat="44.83593" lon="1.00788">
        <ele>22.926811</ele>
        <time>2011-07-17T09:51:20.058Z</time>
      </trkpt>
      <trkpt lat="44.83613" lon="1.00779">
        <ele>22.926849</ele>
        <time>2011-07-17T09:51:24.068Z</time>
      </trkpt>
      <trkpt lat="44.83632" lon="1.00771">
        <ele>22.92691</ele>
        <time>2011-07-17T09:51:28.069Z</time>
      </trkpt>
      <trkpt lat="44.83651" lon="1.00765">
        <ele>23.926968</ele>
        <time>2011-07-17T09:51:32.062Z</time>
      </trkpt>
      <trkpt lat="44.83669" lon="1.00756">
        <ele>23.92701</ele>
        <time>2011-07-17T09:51:36.062Z</time>
      </trkpt>
      <trkpt lat="44.83687" lon="1.00748">
        <ele>23.927063</ele>
        <time>2011-07-17T09:51:40.083Z</time>
      </trkpt>
      <trkpt lat="44.83705" lon="1.00742">
        <ele>23.927113</ele>
        <time>2011-07-17T09:51:44.065Z</time>
      </trkpt>
      <trkpt lat="44.83727" lon="1.0074">
        <ele>22.927208</ele>
        <time>2011-07-17T09:51:49.067Z</time>
      </trkpt>
      <trkpt lat="44.83758" lon="1.00678">
        <ele>22.927116</ele>
        <time>2011-07-17T09:52:19.062Z</time>
      </trkpt>
      <trkpt lat="44.83728" lon="1.0063">
        <ele>22.926823</ele>
        <time>2011-07-17T09:52:30.021Z</time>
      </trkpt>
      <trkpt lat="44.83705" lon="1.00604">
        <ele>22.926628</ele>
        <time>2011-07-17T09:52:33.034Z</time>
      </trkpt>
      <trkpt lat="44.83677" lon="1.00581">
        <ele>21.926426</ele>
        <time>2011-07-17T09:52:36.029Z</time>
      </trkpt>
      <trkpt lat="44.83657" lon="1.00561">
        <ele>21.926277</ele>
        <time>2011-07-17T09:52:39.068Z</time>
      </trkpt>
      <trkpt lat="44.8364" lon="1.00542">
        <ele>21.926132</ele>
        <time>2011-07-17T09:52:42.081Z</time>
      </trkpt>
      <trkpt lat="44.83626" lon="1.00525">
        <ele>21.92601</ele>
        <time>2011-07-17T09:52:45.062Z</time>
      </trkpt>
      <trkpt lat="44.83612" lon="1.00508">
        <ele>20.925888</ele>
        <time>2011-07-17T09:52:48.064Z</time>
      </trkpt>
      <trkpt lat="44.83595" lon="1.00486">
        <ele>20.925751</ele>
        <time>2011-07-17T09:52:52.066Z</time>
      </trkpt>
      <trkpt lat="44.83582" lon="1.00469">
        <ele>20.925621</ele>
        <time>2011-07-17T09:52:55.074Z</time>
      </trkpt>
      <trkpt lat="44.83567" lon="1.00449">
        <ele>19.925488</ele>
        <time>2011-07-17T09:52:59.064Z</time>
      </trkpt>
      <trkpt lat="44.83554" lon="1.00429">
        <ele>19.925362</ele>
        <time>2011-07-17T09:53:03.054Z</time>
      </trkpt>
      <trkpt lat="44.83524" lon="1.00384">
        <ele>19.925072</ele>
        <time>2011-07-17T09:53:20.066Z</time>
      </trkpt>
      <trkpt lat="44.83502" lon="1.00354">
        <ele>19.924881</ele>
        <time>2011-07-17T09:53:27.068Z</time>
      </trkpt>
      <trkpt lat="44.82747" lon="0.99769">
        <ele>17.91959</ele>
        <time>2011-07-17T09:58:22.069Z</time>
      </trkpt>
    </trkseg>
  </trk>
</gpx>